Time;durP1;ratioP1;P1;durP2;ratioP2;P2;SDS_P1;SDS_P2;PMS_P1;PMS_P2;Temp;Humidity;BMP_temperature;BMP_pressure;BME280_temperature;BME280_humidity;BME280_pressure;Samples;Min_cycle;Max_cycle;Signal;HPM_P1;HPM_P2
2023/10/05 00:00:47;;;;;;;11.52;2.40;;;;;;;;;;5019897;28;20411;-57
2023/10/05 00:03:12;;;;;;;7.88;2.63;;;;;;;;;;5014043;28;20395;-57
2023/10/05 00:05:37;;;;;;;7.90;2.20;;;;;;;;;;5022847;28;20410;-58
2023/10/05 00:08:05;;;;;;;9.33;2.53;;;;;;;;;;5020383;28;20874;-58
2023/10/05 00:10:31;;;;;;;9.07;2.40;;;;;;;;;;5025806;28;20427;-58
2023/10/05 00:13:00;;;;;;;7.72;2.22;;;;;;;;;;5022530;28;22180;-58
2023/10/05 00:15:27;;;;;;;8.77;2.50;;;;;;;;;;5019426;28;20385;-58
2023/10/05 00:17:53;;;;;;;9.88;2.55;;;;;;;;;;5018956;28;20418;-58
2023/10/05 00:20:31;;;;;;;10.02;2.05;;;;;;;;;;5024690;28;20419;-58
2023/10/05 00:23:02;;;;;;;8.90;2.47;;;;;;;;;;5025750;28;20395;-58
2023/10/05 00:25:29;;;;;;;9.02;2.30;;;;;;;;;;5019026;28;20404;-58
2023/10/05 00:27:55;;;;;;;10.10;2.45;;;;;;;;;;5016537;28;20780;-58
2023/10/05 00:30:22;;;;;;;7.55;2.40;;;;;;;;;;5032400;28;20383;-57
2023/10/05 00:32:52;;;;;;;11.18;2.55;;;;;;;;;;5022503;28;20399;-58
2023/10/05 00:35:23;;;;;;;7.90;2.40;;;;;;;;;;5021793;28;20419;-57
2023/10/05 00:37:50;;;;;;;9.80;2.15;;;;;;;;;;5012845;28;20409;-58
2023/10/05 00:40:33;;;;;;;7.68;2.30;;;;;;;;;;5015387;28;20436;-58
2023/10/05 00:43:12;;;;;;;8.97;2.63;;;;;;;;;;5016051;28;20408;-57
2023/10/05 00:45:38;;;;;;;8.70;2.38;;;;;;;;;;5021143;28;21017;-58
2023/10/05 00:48:13;;;;;;;8.57;2.50;;;;;;;;;;5022655;28;20416;-58
2023/10/05 00:50:39;;;;;;;8.33;2.43;;;;;;;;;;5025286;28;20415;-58
2023/10/05 00:53:07;;;;;;;9.75;2.45;;;;;;;;;;5015858;28;20503;-58
2023/10/05 00:55:35;;;;;;;9.25;2.30;;;;;;;;;;5017443;28;20391;-58
2023/10/05 00:58:00;;;;;;;8.93;2.50;;;;;;;;;;5024552;28;20418;-58
2023/10/05 01:00:27;;;;;;;8.50;2.77;;;;;;;;;;5023779;28;20406;-58
2023/10/05 01:03:17;;;;;;;9.55;2.75;;;;;;;;;;5029180;28;20486;-58
2023/10/05 01:05:56;;;;;;;10.63;2.50;;;;;;;;;;5031486;28;20973;-58
2023/10/05 01:08:23;;;;;;;9.57;2.63;;;;;;;;;;5030751;28;20824;-58
2023/10/05 01:10:49;;;;;;;9.35;2.50;;;;;;;;;;5031859;28;20400;-58
2023/10/05 01:13:23;;;;;;;11.02;3.00;;;;;;;;;;5032972;28;20407;-58
2023/10/05 01:15:50;;;;;;;11.68;2.55;;;;;;;;;;5031057;28;20473;-58
2023/10/05 01:18:15;;;;;;;9.80;2.30;;;;;;;;;;5030464;28;20407;-57
2023/10/05 01:20:43;;;;;;;8.83;2.23;;;;;;;;;;5031563;28;20421;-57
2023/10/05 01:23:08;;;;;;;8.20;2.30;;;;;;;;;;5030239;28;20830;-58
2023/10/05 01:25:36;;;;;;;11.10;2.53;;;;;;;;;;5031410;28;20914;-58
2023/10/05 01:28:01;;;;;;;8.43;2.50;;;;;;;;;;5031022;28;20462;-58
2023/10/05 01:30:27;;;;;;;9.23;2.53;;;;;;;;;;5043460;28;20406;-57
2023/10/05 01:32:53;;;;;;;9.50;2.53;;;;;;;;;;5051375;28;20397;-58
2023/10/05 01:35:19;;;;;;;8.13;2.57;;;;;;;;;;5050726;28;20450;-58
2023/10/05 01:37:45;;;;;;;7.95;2.40;;;;;;;;;;5050429;28;20394;-58
2023/10/05 01:40:13;;;;;;;7.33;2.10;;;;;;;;;;5050650;28;20413;-58
2023/10/05 01:42:40;;;;;;;9.15;2.47;;;;;;;;;;5051052;28;20409;-58
2023/10/05 01:45:06;;;;;;;11.85;2.60;;;;;;;;;;5032195;28;20406;-58
2023/10/05 01:47:32;;;;;;;10.07;2.50;;;;;;;;;;5031303;28;20395;-58
2023/10/05 01:49:57;;;;;;;9.43;2.72;;;;;;;;;;5030315;28;21015;-58
2023/10/05 01:52:22;;;;;;;10.83;2.50;;;;;;;;;;5030701;28;20450;-58
2023/10/05 01:54:47;;;;;;;11.00;2.57;;;;;;;;;;5030551;28;20444;-58
2023/10/05 01:57:16;;;;;;;9.67;2.53;;;;;;;;;;5029902;28;20879;-58
2023/10/05 01:59:41;;;;;;;9.50;2.63;;;;;;;;;;5030865;28;20426;-58
2023/10/05 02:02:10;;;;;;;9.53;2.77;;;;;;;;;;5030565;28;20398;-58
2023/10/05 02:04:40;;;;;;;10.63;2.53;;;;;;;;;;5029859;28;20746;-57
2023/10/05 02:07:05;;;;;;;9.83;2.80;;;;;;;;;;5030690;28;20391;-58
2023/10/05 02:09:31;;;;;;;10.48;2.70;;;;;;;;;;5030473;28;20402;-58
2023/10/05 02:12:01;;;;;;;10.48;2.42;;;;;;;;;;5030177;28;20488;-58
2023/10/05 02:14:26;;;;;;;8.35;2.50;;;;;;;;;;5046868;28;20400;-58
2023/10/05 02:16:52;;;;;;;10.77;2.73;;;;;;;;;;5050525;28;20401;-58
2023/10/05 02:19:19;;;;;;;9.45;2.78;;;;;;;;;;5049381;28;20397;-58
2023/10/05 02:21:45;;;;;;;7.70;2.00;;;;;;;;;;5050323;28;20914;-57
2023/10/05 02:24:16;;;;;;;11.05;2.42;;;;;;;;;;5049683;28;20750;-58
2023/10/05 02:26:55;;;;;;;10.77;2.58;;;;;;;;;;5049630;28;20421;-58
2023/10/05 02:29:21;;;;;;;8.10;2.50;;;;;;;;;;5034189;28;20400;-58
2023/10/05 02:32:05;;;;;;;10.98;2.42;;;;;;;;;;5050236;28;20397;-58
2023/10/05 02:34:39;;;;;;;12.13;3.03;;;;;;;;;;5048903;28;20545;-58
2023/10/05 02:37:05;;;;;;;10.27;3.17;;;;;;;;;;5049761;28;20733;-57
2023/10/05 02:39:37;;;;;;;9.55;2.80;;;;;;;;;;5049726;28;20413;-58
2023/10/05 02:42:05;;;;;;;9.80;3.03;;;;;;;;;;5049737;28;20768;-58
2023/10/05 02:44:32;;;;;;;10.20;2.80;;;;;;;;;;5037171;28;20391;-58
2023/10/05 02:46:59;;;;;;;9.82;2.88;;;;;;;;;;5023376;28;20413;-57
2023/10/05 02:49:24;;;;;;;8.55;3.03;;;;;;;;;;5014018;28;20428;-57
2023/10/05 02:51:52;;;;;;;9.70;3.03;;;;;;;;;;5017464;28;20440;-57
2023/10/05 02:54:18;;;;;;;10.60;2.88;;;;;;;;;;5021946;28;20805;-58
2023/10/05 02:56:43;;;;;;;11.73;3.27;;;;;;;;;;5015131;28;20913;-58
2023/10/05 02:59:10;;;;;;;11.83;2.80;;;;;;;;;;5019384;28;20431;-57
2023/10/05 03:01:38;;;;;;;8.85;2.97;;;;;;;;;;5020038;28;20416;-58
2023/10/05 03:04:16;;;;;;;9.55;2.90;;;;;;;;;;5014428;28;20409;-57
2023/10/05 03:06:41;;;;;;;10.70;2.78;;;;;;;;;;5014582;28;20407;-58
2023/10/05 03:09:07;;;;;;;8.37;2.50;;;;;;;;;;5016754;28;20395;-58
2023/10/05 03:11:39;;;;;;;10.13;2.73;;;;;;;;;;5022750;28;20432;-58
2023/10/05 03:14:04;;;;;;;11.05;2.85;;;;;;;;;;5014495;28;20419;-58
2023/10/05 03:16:30;;;;;;;10.40;3.07;;;;;;;;;;5019754;28;20790;-58
2023/10/05 03:19:00;;;;;;;8.73;2.63;;;;;;;;;;5020366;28;20404;-58
2023/10/05 03:21:26;;;;;;;11.70;2.80;;;;;;;;;;5013310;28;20805;-58
2023/10/05 03:23:52;;;;;;;10.10;2.72;;;;;;;;;;5022885;28;20395;-58
2023/10/05 03:26:17;;;;;;;10.50;2.60;;;;;;;;;;5016902;28;20420;-58
2023/10/05 03:28:45;;;;;;;10.82;3.30;;;;;;;;;;5021672;28;21195;-58
2023/10/05 03:31:13;;;;;;;10.73;2.88;;;;;;;;;;5008597;28;21206;-58
2023/10/05 03:33:39;;;;;;;12.35;3.05;;;;;;;;;;5004882;28;20404;-58
2023/10/05 03:36:13;;;;;;;10.97;3.30;;;;;;;;;;5003001;28;21020;-58
2023/10/05 03:38:39;;;;;;;8.55;2.72;;;;;;;;;;5001946;28;20804;-58
2023/10/05 03:41:08;;;;;;;11.20;2.97;;;;;;;;;;4997817;28;20412;-58
2023/10/05 03:43:34;;;;;;;9.45;2.88;;;;;;;;;;5001616;28;20848;-57
2023/10/05 03:46:06;;;;;;;8.90;2.90;;;;;;;;;;5002257;28;20490;-58
2023/10/05 03:48:32;;;;;;;11.83;3.10;;;;;;;;;;5012453;28;21017;-58
2023/10/05 03:50:57;;;;;;;9.77;3.03;;;;;;;;;;5008439;28;21614;-58
2023/10/05 03:53:24;;;;;;;11.47;3.40;;;;;;;;;;5008538;28;20409;-58
2023/10/05 03:55:50;;;;;;;9.43;3.10;;;;;;;;;;5007882;28;20430;-58
2023/10/05 03:58:16;;;;;;;11.45;3.35;;;;;;;;;;5007902;28;20412;-58
2023/10/05 04:00:41;;;;;;;12.30;3.75;;;;;;;;;;5008903;28;20443;-58
2023/10/05 04:03:07;;;;;;;9.10;2.80;;;;;;;;;;4999053;28;20520;-58
2023/10/05 04:05:32;;;;;;;9.02;3.25;;;;;;;;;;4998371;28;20404;-58
2023/10/05 04:08:03;;;;;;;10.83;3.37;;;;;;;;;;5001352;28;20510;-58
2023/10/05 04:10:46;;;;;;;11.90;3.72;;;;;;;;;;5012754;28;20393;-58
2023/10/05 04:13:11;;;;;;;10.93;3.28;;;;;;;;;;5006555;28;20919;-58
2023/10/05 04:15:38;;;;;;;10.07;3.10;;;;;;;;;;5007376;28;20610;-58
2023/10/05 04:18:03;;;;;;;9.73;3.55;;;;;;;;;;5007087;28;20926;-58
2023/10/05 04:20:33;;;;;;;11.85;3.45;;;;;;;;;;5006536;28;20879;-58
2023/10/05 04:22:58;;;;;;;10.13;3.50;;;;;;;;;;5006958;28;20422;-57
2023/10/05 04:25:24;;;;;;;9.97;3.20;;;;;;;;;;5001460;28;20409;-58
2023/10/05 04:27:49;;;;;;;9.07;3.30;;;;;;;;;;5002999;28;20407;-58
2023/10/05 04:30:21;;;;;;;11.50;3.50;;;;;;;;;;4998092;28;20496;-58
2023/10/05 04:32:46;;;;;;;10.40;3.63;;;;;;;;;;5007037;28;20415;-57
2023/10/05 04:35:22;;;;;;;10.13;3.73;;;;;;;;;;5011523;28;20415;-58
2023/10/05 04:37:49;;;;;;;12.88;3.63;;;;;;;;;;5006033;28;20922;-58
2023/10/05 04:40:16;;;;;;;12.67;3.63;;;;;;;;;;5005227;28;20419;-58
2023/10/05 04:42:42;;;;;;;12.07;3.65;;;;;;;;;;5007398;28;20417;-58
2023/10/05 04:45:12;;;;;;;10.80;3.43;;;;;;;;;;5007919;28;20402;-58
2023/10/05 04:47:37;;;;;;;13.77;3.75;;;;;;;;;;5005438;28;20433;-58
2023/10/05 04:50:05;;;;;;;13.43;3.40;;;;;;;;;;4998144;28;20951;-58
2023/10/05 04:52:33;;;;;;;11.63;3.63;;;;;;;;;;5001583;28;20458;-58
2023/10/05 04:55:13;;;;;;;10.70;3.70;;;;;;;;;;4998917;28;20860;-58
2023/10/05 04:57:49;;;;;;;11.52;4.03;;;;;;;;;;5006410;28;20435;-58
2023/10/05 05:00:54;;;;;;;12.63;3.72;;;;;;;;;;5005723;28;20514;-57
2023/10/05 05:03:17;;;;;;;11.30;3.50;;;;;;;;;;5006785;28;20407;-58
2023/10/05 05:05:57;;;;;;;13.32;3.70;;;;;;;;;;5012461;28;20943;-58
2023/10/05 05:08:22;;;;;;;12.85;4.00;;;;;;;;;;5005270;28;20493;-58
2023/10/05 05:10:48;;;;;;;13.47;4.30;;;;;;;;;;5004287;28;20405;-58
2023/10/05 05:13:13;;;;;;;11.33;4.17;;;;;;;;;;5000777;28;21499;-58
2023/10/05 05:15:38;;;;;;;11.43;3.90;;;;;;;;;;4997839;28;20904;-58
2023/10/05 05:18:04;;;;;;;10.60;3.93;;;;;;;;;;4999219;28;20423;-58
2023/10/05 05:20:29;;;;;;;11.18;3.80;;;;;;;;;;5006821;28;21240;-58
2023/10/05 05:22:54;;;;;;;11.70;4.20;;;;;;;;;;5004565;28;20435;-57
2023/10/05 05:25:20;;;;;;;10.77;3.97;;;;;;;;;;5005110;28;20476;-58
2023/10/05 05:27:45;;;;;;;12.53;4.13;;;;;;;;;;5006048;28;20762;-57
2023/10/05 05:30:23;;;;;;;11.23;3.90;;;;;;;;;;5005940;28;20406;-58
2023/10/05 05:32:49;;;;;;;12.88;4.20;;;;;;;;;;5006008;28;20552;-58
2023/10/05 05:35:16;;;;;;;11.52;3.60;;;;;;;;;;4997419;28;20515;-58
2023/10/05 05:37:42;;;;;;;12.95;4.43;;;;;;;;;;5000128;28;20543;-58
2023/10/05 05:40:12;;;;;;;13.55;3.97;;;;;;;;;;4998544;28;20438;-58
2023/10/05 05:42:37;;;;;;;14.25;4.40;;;;;;;;;;5005009;28;20678;-57
2023/10/05 05:45:11;;;;;;;12.53;4.03;;;;;;;;;;5006647;28;20404;-58
2023/10/05 05:47:36;;;;;;;14.65;4.30;;;;;;;;;;5007331;28;20400;-58
2023/10/05 05:50:03;;;;;;;12.37;3.93;;;;;;;;;;5004650;28;20407;-58
2023/10/05 05:52:28;;;;;;;13.17;4.50;;;;;;;;;;5005359;28;20917;-57
2023/10/05 05:54:54;;;;;;;12.60;3.92;;;;;;;;;;5007360;28;20407;-57
2023/10/05 05:57:20;;;;;;;10.57;4.00;;;;;;;;;;5004451;28;20681;-57
2023/10/05 05:59:45;;;;;;;12.82;4.32;;;;;;;;;;4996905;28;20662;-57
2023/10/05 06:02:10;;;;;;;13.40;4.33;;;;;;;;;;4996666;28;20409;-57
2023/10/05 06:04:37;;;;;;;10.63;4.17;;;;;;;;;;5003542;28;20828;-57
2023/10/05 06:07:11;;;;;;;10.93;4.30;;;;;;;;;;5004730;28;20440;-57
2023/10/05 06:09:37;;;;;;;12.68;4.28;;;;;;;;;;5005334;28;20399;-57
2023/10/05 06:12:02;;;;;;;11.80;4.00;;;;;;;;;;5005224;28;20914;-58
2023/10/05 06:14:28;;;;;;;11.83;4.17;;;;;;;;;;5004269;28;20409;-57
2023/10/05 06:16:53;;;;;;;10.97;4.27;;;;;;;;;;5005113;28;20729;-57
2023/10/05 06:19:18;;;;;;;10.43;4.25;;;;;;;;;;4997115;28;20737;-57
2023/10/05 06:21:45;;;;;;;11.88;4.28;;;;;;;;;;4997270;28;20445;-57
2023/10/05 06:24:10;;;;;;;14.32;4.28;;;;;;;;;;4995778;28;20423;-57
2023/10/05 06:26:37;;;;;;;10.77;4.07;;;;;;;;;;5001139;28;20450;-56
2023/10/05 06:29:05;;;;;;;11.43;3.90;;;;;;;;;;5007136;28;20411;-58
2023/10/05 06:31:30;;;;;;;13.90;4.30;;;;;;;;;;5004867;28;20427;-56
2023/10/05 06:33:55;;;;;;;11.67;4.10;;;;;;;;;;5004323;28;20404;-57
2023/10/05 06:36:20;;;;;;;15.23;4.17;;;;;;;;;;5006739;28;21070;-57
2023/10/05 06:38:46;;;;;;;12.17;4.13;;;;;;;;;;5003587;28;20430;-57
2023/10/05 06:41:12;;;;;;;10.83;3.73;;;;;;;;;;5005540;28;20443;-57
2023/10/05 06:43:38;;;;;;;11.23;3.85;;;;;;;;;;5019830;28;20419;-57
2023/10/05 06:46:14;;;;;;;13.23;4.10;;;;;;;;;;5018237;28;20407;-56
2023/10/05 06:48:40;;;;;;;14.23;3.83;;;;;;;;;;5023323;28;20413;-57
2023/10/05 06:51:07;;;;;;;10.25;3.60;;;;;;;;;;5021208;28;20390;-56
2023/10/05 06:53:32;;;;;;;11.48;3.72;;;;;;;;;;5016912;28;20418;-57
2023/10/05 06:55:57;;;;;;;11.17;3.67;;;;;;;;;;5015478;28;20399;-57
2023/10/05 06:58:22;;;;;;;10.97;3.50;;;;;;;;;;5022545;28;20395;-57
2023/10/05 07:00:48;;;;;;;11.97;4.27;;;;;;;;;;5015396;28;20983;-57
2023/10/05 07:03:13;;;;;;;12.50;3.80;;;;;;;;;;5015784;28;20400;-57
2023/10/05 07:05:39;;;;;;;13.27;4.10;;;;;;;;;;5023086;28;20391;-57
2023/10/05 07:08:05;;;;;;;12.68;3.80;;;;;;;;;;5021331;28;20917;-57
2023/10/05 07:10:31;;;;;;;11.27;3.60;;;;;;;;;;5018128;28;20439;-57
2023/10/05 07:12:56;;;;;;;14.90;4.30;;;;;;;;;;5014805;28;20759;-57
2023/10/05 07:15:21;;;;;;;13.98;4.50;;;;;;;;;;5024297;28;20397;-57
2023/10/05 07:17:48;;;;;;;10.77;4.00;;;;;;;;;;5020700;28;20415;-56
2023/10/05 07:20:16;;;;;;;10.23;3.73;;;;;;;;;;5017554;28;20437;-57
2023/10/05 07:22:41;;;;;;;12.20;3.85;;;;;;;;;;5026946;28;20915;-58
2023/10/05 07:25:08;;;;;;;10.63;4.13;;;;;;;;;;5017694;28;20429;-56
2023/10/05 07:27:35;;;;;;;9.43;3.47;;;;;;;;;;5019530;28;20414;-57
2023/10/05 07:30:03;;;;;;;13.60;3.90;;;;;;;;;;5027132;28;20407;-58
2023/10/05 07:32:28;;;;;;;12.00;3.90;;;;;;;;;;5026192;28;20394;-57
2023/10/05 07:34:54;;;;;;;16.07;4.50;;;;;;;;;;5020940;28;20403;-57
2023/10/05 07:37:19;;;;;;;11.35;4.10;;;;;;;;;;5025694;28;20918;-57
2023/10/05 07:39:45;;;;;;;11.00;4.00;;;;;;;;;;5026926;28;20415;-57
2023/10/05 07:42:10;;;;;;;13.67;4.10;;;;;;;;;;5025505;28;20394;-57
2023/10/05 07:44:37;;;;;;;12.30;4.40;;;;;;;;;;5028545;28;20423;-57
2023/10/05 07:47:02;;;;;;;9.88;3.47;;;;;;;;;;5021091;28;20460;-57
2023/10/05 07:49:28;;;;;;;10.87;3.83;;;;;;;;;;5019112;28;20784;-57
2023/10/05 07:51:53;;;;;;;14.60;4.30;;;;;;;;;;5023003;28;20430;-57
2023/10/05 07:54:18;;;;;;;12.70;4.20;;;;;;;;;;5025711;28;20405;-57
2023/10/05 07:56:45;;;;;;;11.43;3.90;;;;;;;;;;5025862;28;20782;-57
2023/10/05 07:59:10;;;;;;;12.57;4.13;;;;;;;;;;5021811;28;20410;-57
2023/10/05 08:01:36;;;;;;;10.83;3.73;;;;;;;;;;5024743;28;20412;-56
2023/10/05 08:04:01;;;;;;;11.80;3.87;;;;;;;;;;5025224;28;20768;-56
2023/10/05 08:06:26;;;;;;;12.13;3.78;;;;;;;;;;5018069;28;20404;-56
2023/10/05 08:08:53;;;;;;;11.50;4.17;;;;;;;;;;5018996;28;20471;-56
2023/10/05 08:11:20;;;;;;;10.15;3.63;;;;;;;;;;5024894;28;20426;-56
2023/10/05 08:13:45;;;;;;;11.15;3.83;;;;;;;;;;5017424;28;20413;-57
2023/10/05 08:16:12;;;;;;;12.17;4.07;;;;;;;;;;5020200;28;20407;-57
2023/10/05 08:18:37;;;;;;;11.10;3.80;;;;;;;;;;5025060;28;20778;-57
2023/10/05 08:21:04;;;;;;;12.85;4.22;;;;;;;;;;5025365;28;20408;-57
2023/10/05 08:23:29;;;;;;;13.25;5.15;;;;;;;;;;5019454;28;20424;-58
2023/10/05 08:26:01;;;;;;;13.27;3.83;;;;;;;;;;5017446;28;20477;-57
2023/10/05 08:28:26;;;;;;;10.65;4.72;;;;;;;;;;5016848;28;20403;-57
2023/10/05 08:31:05;;;;;;;11.50;3.97;;;;;;;;;;5024725;28;20407;-57
2023/10/05 08:33:33;;;;;;;10.50;4.00;;;;;;;;;;5032475;28;20895;-57
2023/10/05 08:35:59;;;;;;;9.63;3.53;;;;;;;;;;5020267;28;21029;-57
2023/10/05 08:38:24;;;;;;;12.43;4.38;;;;;;;;;;5026102;28;20482;-57
2023/10/05 08:40:52;;;;;;;13.57;4.00;;;;;;;;;;5016218;28;20409;-57
2023/10/05 08:43:19;;;;;;;10.75;3.60;;;;;;;;;;5019692;28;20435;-57
2023/10/05 08:45:46;;;;;;;12.85;3.78;;;;;;;;;;5024545;28;20408;-57
2023/10/05 08:48:12;;;;;;;11.13;3.30;;;;;;;;;;5025141;28;20412;-57
2023/10/05 08:50:37;;;;;;;12.70;3.67;;;;;;;;;;5018736;28;20420;-57
2023/10/05 08:53:03;;;;;;;11.27;3.38;;;;;;;;;;5017589;28;20428;-57
2023/10/05 08:55:29;;;;;;;12.33;3.83;;;;;;;;;;5017130;28;20423;-57
2023/10/05 08:57:54;;;;;;;10.27;3.20;;;;;;;;;;5015846;28;20440;-57
2023/10/05 09:00:38;;;;;;;11.32;4.25;;;;;;;;;;5018108;28;22142;-57
2023/10/05 09:03:05;;;;;;;10.55;3.80;;;;;;;;;;5016845;28;20415;-57
2023/10/05 09:05:33;;;;;;;11.65;3.10;;;;;;;;;;5016884;28;20407;-57
2023/10/05 09:07:58;;;;;;;12.40;3.80;;;;;;;;;;5017414;28;20451;-57
2023/10/05 09:10:26;;;;;;;9.90;3.50;;;;;;;;;;5017844;28;20447;-57
2023/10/05 09:12:58;;;;;;;9.27;3.17;;;;;;;;;;5015972;28;20401;-57
2023/10/05 09:15:28;;;;;;;11.98;3.47;;;;;;;;;;5024313;28;20443;-57
2023/10/05 09:17:54;;;;;;;11.30;3.50;;;;;;;;;;5019142;28;20806;-57
2023/10/05 09:20:22;;;;;;;10.40;3.30;;;;;;;;;;5015959;28;20508;-57
2023/10/05 09:22:48;;;;;;;10.93;3.53;;;;;;;;;;5023254;28;20759;-57
2023/10/05 09:25:15;;;;;;;18.00;3.58;;;;;;;;;;5017335;28;20424;-57
2023/10/05 09:27:50;;;;;;;14.27;3.60;;;;;;;;;;5017083;28;20404;-57
2023/10/05 09:30:18;;;;;;;12.57;3.90;;;;;;;;;;5019622;28;20870;-56
2023/10/05 09:32:46;;;;;;;13.18;3.50;;;;;;;;;;5024901;28;20407;-57
2023/10/05 09:35:23;;;;;;;12.23;4.20;;;;;;;;;;5017264;28;20465;-56
2023/10/05 09:37:49;;;;;;;13.70;4.40;;;;;;;;;;5015161;28;20440;-56
2023/10/05 09:40:17;;;;;;;10.20;3.20;;;;;;;;;;5016135;28;20424;-57
2023/10/05 09:42:42;;;;;;;9.83;3.57;;;;;;;;;;5022561;28;20503;-56
2023/10/05 09:45:12;;;;;;;13.05;4.90;;;;;;;;;;5019491;28;21325;-57
2023/10/05 09:47:38;;;;;;;9.82;3.08;;;;;;;;;;5022792;28;20400;-56
2023/10/05 09:50:10;;;;;;;9.30;3.13;;;;;;;;;;5013335;28;20416;-57
2023/10/05 09:52:36;;;;;;;13.95;4.28;;;;;;;;;;5022258;28;20896;-57
2023/10/05 09:55:03;;;;;;;10.07;3.38;;;;;;;;;;5025187;28;20403;-57
2023/10/05 09:57:29;;;;;;;10.45;3.40;;;;;;;;;;5023713;28;20898;-56
2023/10/05 10:00:00;;;;;;;10.23;3.10;;;;;;;;;;5016756;28;20431;-57
2023/10/05 10:02:29;;;;;;;12.07;3.45;;;;;;;;;;5016985;28;20397;-57
2023/10/05 10:04:55;;;;;;;10.98;3.13;;;;;;;;;;5023639;28;20414;-57
2023/10/05 10:07:22;;;;;;;12.20;3.87;;;;;;;;;;5015113;28;20459;-56
2023/10/05 10:09:53;;;;;;;9.60;3.67;;;;;;;;;;5017835;28;20502;-57
2023/10/05 10:12:25;;;;;;;10.70;3.58;;;;;;;;;;5014874;28;20434;-57
2023/10/05 10:14:50;;;;;;;11.38;2.70;;;;;;;;;;5023697;28;20428;-57
2023/10/05 10:17:24;;;;;;;10.10;3.00;;;;;;;;;;5021645;28;20422;-57
2023/10/05 10:20:13;;;;;;;8.68;2.70;;;;;;;;;;5036112;28;20404;-57
2023/10/05 10:22:46;;;;;;;11.48;3.00;;;;;;;;;;5019511;28;20415;-57
2023/10/05 10:25:29;;;;;;;11.05;2.97;;;;;;;;;;5022216;28;20415;-57
2023/10/05 10:28:16;;;;;;;9.90;2.60;;;;;;;;;;5023369;28;20402;-57
2023/10/05 10:30:43;;;;;;;10.35;3.28;;;;;;;;;;5020461;28;20398;-57
2023/10/05 10:33:30;;;;;;;8.93;2.50;;;;;;;;;;5020214;28;20418;-57
2023/10/05 10:35:56;;;;;;;11.18;2.80;;;;;;;;;;5022985;28;20414;-57
2023/10/05 10:38:21;;;;;;;9.20;2.53;;;;;;;;;;5008897;28;20404;-57
2023/10/05 10:41:06;;;;;;;9.98;2.85;;;;;;;;;;5013177;28;21341;-57
2023/10/05 10:43:32;;;;;;;10.98;2.97;;;;;;;;;;5018993;28;20399;-57
2023/10/05 10:45:59;;;;;;;13.47;2.73;;;;;;;;;;5016684;28;20739;-57
2023/10/05 10:48:29;;;;;;;10.02;2.92;;;;;;;;;;5023142;28;20438;-57
2023/10/05 10:50:59;;;;;;;9.77;3.00;;;;;;;;;;5022624;28;20412;-57
2023/10/05 10:53:25;;;;;;;9.70;2.67;;;;;;;;;;5018329;28;20484;-57
2023/10/05 10:55:58;;;;;;;8.07;2.20;;;;;;;;;;5019993;28;20505;-57
2023/10/05 10:58:24;;;;;;;11.18;2.80;;;;;;;;;;5021772;28;20433;-57
2023/10/05 11:00:57;;;;;;;8.98;2.78;;;;;;;;;;5015136;28;20404;-57
2023/10/05 11:03:25;;;;;;;9.55;2.50;;;;;;;;;;5016861;28;20881;-57
2023/10/05 11:05:52;;;;;;;11.00;2.90;;;;;;;;;;5014300;28;20407;-57
2023/10/05 11:08:23;;;;;;;13.63;3.20;;;;;;;;;;5014417;28;20409;-57
2023/10/05 11:10:54;;;;;;;9.57;2.85;;;;;;;;;;5015681;28;20416;-57
2023/10/05 11:13:20;;;;;;;12.48;3.05;;;;;;;;;;5015006;28;20500;-57
2023/10/05 11:15:57;;;;;;;10.80;2.63;;;;;;;;;;5022866;28;20412;-57
2023/10/05 11:18:24;;;;;;;9.45;2.80;;;;;;;;;;5022333;28;20403;-56
2023/10/05 11:20:55;;;;;;;9.65;3.08;;;;;;;;;;5018297;28;20404;-57
2023/10/05 11:23:25;;;;;;;9.60;3.10;;;;;;;;;;5020032;28;20430;-57
2023/10/05 11:25:51;;;;;;;10.57;3.17;;;;;;;;;;5022249;28;20455;-57
2023/10/05 11:28:24;;;;;;;11.65;3.40;;;;;;;;;;5013009;28;20448;-57
2023/10/05 11:30:49;;;;;;;10.77;2.80;;;;;;;;;;5017549;28;20838;-57
2023/10/05 11:33:15;;;;;;;13.10;3.00;;;;;;;;;;5022434;28;20464;-57
2023/10/05 11:35:48;;;;;;;10.38;2.97;;;;;;;;;;5013872;28;20401;-57
2023/10/05 11:38:14;;;;;;;9.18;3.30;;;;;;;;;;5015811;28;21101;-57
2023/10/05 11:40:50;;;;;;;9.83;2.90;;;;;;;;;;5014730;28;20399;-57
2023/10/05 11:43:16;;;;;;;8.73;2.70;;;;;;;;;;5014520;28;20825;-57
2023/10/05 11:46:00;;;;;;;10.05;2.70;;;;;;;;;;5023065;28;20403;-57
2023/10/05 11:48:27;;;;;;;8.93;2.70;;;;;;;;;;5018156;28;20442;-57
2023/10/05 11:50:53;;;;;;;8.38;2.30;;;;;;;;;;5020978;28;20914;-57
2023/10/05 11:53:20;;;;;;;8.87;2.47;;;;;;;;;;5019413;28;20422;-57
2023/10/05 11:55:49;;;;;;;10.27;2.60;;;;;;;;;;5013376;28;20777;-57
2023/10/05 11:58:15;;;;;;;10.32;2.60;;;;;;;;;;5017654;28;20431;-57
2023/10/05 12:00:41;;;;;;;12.02;2.60;;;;;;;;;;5022448;28;20418;-56
2023/10/05 12:03:09;;;;;;;10.43;2.80;;;;;;;;;;5025164;28;20403;-57
2023/10/05 12:05:34;;;;;;;11.82;2.90;;;;;;;;;;5020345;28;20502;-57
2023/10/05 12:07:59;;;;;;;10.60;2.80;;;;;;;;;;5022981;28;20430;-57
2023/10/05 12:10:25;;;;;;;11.68;3.00;;;;;;;;;;5024491;28;20393;-57
2023/10/05 12:12:50;;;;;;;8.38;2.60;;;;;;;;;;5023545;28;20404;-57
2023/10/05 12:15:17;;;;;;;7.47;2.40;;;;;;;;;;5022568;28;20407;-57
2023/10/05 12:17:44;;;;;;;9.32;2.60;;;;;;;;;;5024366;28;20422;-57
2023/10/05 12:20:13;;;;;;;9.38;2.33;;;;;;;;;;5025478;28;20425;-57
2023/10/05 12:22:38;;;;;;;10.07;2.40;;;;;;;;;;5020384;28;20417;-57
2023/10/05 12:25:07;;;;;;;9.63;3.00;;;;;;;;;;5024201;28;20430;-56
2023/10/05 12:27:35;;;;;;;11.48;2.58;;;;;;;;;;5025870;28;20400;-57
2023/10/05 12:30:00;;;;;;;8.88;2.30;;;;;;;;;;5018346;28;20409;-57
2023/10/05 12:32:25;;;;;;;10.30;2.77;;;;;;;;;;5018325;28;20423;-57
2023/10/05 12:34:51;;;;;;;10.97;2.30;;;;;;;;;;5025665;28;20732;-57
2023/10/05 12:37:17;;;;;;;11.20;2.40;;;;;;;;;;5016480;28;20486;-57
2023/10/05 12:39:44;;;;;;;11.38;3.22;;;;;;;;;;5019910;28;20409;-57
2023/10/05 12:42:10;;;;;;;9.65;2.38;;;;;;;;;;5016544;28;20405;-57
2023/10/05 12:44:36;;;;;;;9.82;2.60;;;;;;;;;;5016631;28;20413;-57
2023/10/05 12:47:01;;;;;;;9.27;2.40;;;;;;;;;;5019622;28;20426;-57
2023/10/05 12:49:27;;;;;;;10.68;2.83;;;;;;;;;;5017895;28;20944;-57
2023/10/05 12:51:52;;;;;;;8.33;2.30;;;;;;;;;;5016481;28;20498;-57
2023/10/05 12:54:18;;;;;;;10.20;2.50;;;;;;;;;;5023241;28;20402;-57
2023/10/05 12:56:45;;;;;;;11.70;2.50;;;;;;;;;;5021324;28;20473;-57
2023/10/05 12:59:10;;;;;;;7.80;2.50;;;;;;;;;;5023922;28;20411;-57
2023/10/05 13:01:36;;;;;;;9.37;2.27;;;;;;;;;;5017047;28;20428;-57
2023/10/05 13:04:05;;;;;;;10.93;2.60;;;;;;;;;;5018936;28;20407;-57
2023/10/05 13:06:32;;;;;;;9.43;2.63;;;;;;;;;;5015829;28;20906;-57
2023/10/05 13:09:01;;;;;;;9.65;2.20;;;;;;;;;;5016652;28;20434;-57
2023/10/05 13:11:29;;;;;;;27.87;5.03;;;;;;;;;;5016096;28;20411;-58
2023/10/05 13:13:55;;;;;;;10.43;2.72;;;;;;;;;;5017009;28;20427;-57
2023/10/05 13:16:21;;;;;;;9.23;2.73;;;;;;;;;;5024470;28;20369;-57
2023/10/05 13:18:47;;;;;;;9.43;2.53;;;;;;;;;;5017026;28;20408;-57
2023/10/05 13:21:14;;;;;;;8.53;2.30;;;;;;;;;;5017909;28;20406;-57
2023/10/05 13:23:39;;;;;;;10.23;2.78;;;;;;;;;;5024719;28;20495;-57
2023/10/05 13:26:06;;;;;;;9.43;2.50;;;;;;;;;;5015319;28;20553;-57
2023/10/05 13:28:32;;;;;;;10.57;2.10;;;;;;;;;;5020698;28;20758;-57
2023/10/05 13:30:57;;;;;;;8.90;2.00;;;;;;;;;;5024999;28;20423;-57
2023/10/05 13:33:28;;;;;;;8.47;2.30;;;;;;;;;;5009731;28;20548;-58
2023/10/05 13:35:53;;;;;;;7.93;2.20;;;;;;;;;;5001862;28;20997;-57
2023/10/05 13:38:27;;;;;;;10.17;2.40;;;;;;;;;;5003368;28;20884;-57
2023/10/05 13:40:58;;;;;;;7.40;1.80;;;;;;;;;;5004886;28;20506;-57
2023/10/05 13:43:26;;;;;;;9.02;2.28;;;;;;;;;;5010236;28;20395;-57
2023/10/05 13:45:51;;;;;;;8.02;2.22;;;;;;;;;;5009651;28;20470;-57
2023/10/05 13:48:17;;;;;;;8.75;2.15;;;;;;;;;;5009298;28;20896;-58
2023/10/05 13:50:42;;;;;;;8.87;2.30;;;;;;;;;;5016048;28;20415;-57
2023/10/05 13:53:09;;;;;;;8.67;2.40;;;;;;;;;;5009769;28;20417;-57
2023/10/05 13:55:35;;;;;;;9.43;1.87;;;;;;;;;;5005922;28;20453;-58
2023/10/05 13:58:00;;;;;;;7.70;2.10;;;;;;;;;;5000304;28;20411;-58
2023/10/05 14:00:26;;;;;;;6.20;2.10;;;;;;;;;;5001418;28;20468;-57
2023/10/05 14:02:51;;;;;;;7.23;1.80;;;;;;;;;;5004818;28;20395;-57
2023/10/05 14:05:19;;;;;;;7.53;2.00;;;;;;;;;;5008872;28;20404;-57
2023/10/05 14:07:50;;;;;;;8.80;2.20;;;;;;;;;;5016746;28;20473;-57
2023/10/05 14:10:16;;;;;;;10.95;2.47;;;;;;;;;;5006964;28;20467;-57
2023/10/05 14:12:42;;;;;;;5.57;1.73;;;;;;;;;;5011587;28;20399;-57
2023/10/05 14:15:09;;;;;;;7.38;2.00;;;;;;;;;;5009303;28;20407;-57
2023/10/05 14:17:35;;;;;;;7.57;2.17;;;;;;;;;;5007892;28;20471;-57
2023/10/05 14:20:01;;;;;;;8.38;2.13;;;;;;;;;;5003252;28;20405;-57
2023/10/05 14:22:28;;;;;;;10.03;1.93;;;;;;;;;;5000768;28;20668;-57
2023/10/05 14:24:53;;;;;;;7.03;1.90;;;;;;;;;;5001473;28;20419;-57
2023/10/05 14:27:21;;;;;;;6.87;2.10;;;;;;;;;;5010064;28;20829;-58
2023/10/05 14:29:49;;;;;;;7.72;2.30;;;;;;;;;;5011868;28;20906;-57
2023/10/05 14:32:15;;;;;;;6.30;1.88;;;;;;;;;;5006526;28;20437;-57
2023/10/05 14:34:41;;;;;;;7.60;2.00;;;;;;;;;;5008909;28;20752;-57
2023/10/05 14:37:07;;;;;;;7.37;1.87;;;;;;;;;;5008664;28;20438;-57
2023/10/05 14:39:33;;;;;;;7.03;2.05;;;;;;;;;;5007728;28;20411;-57